Jay Em, WY

4:49 PM MST on December 28, 2014 (GMT -0700)
Torrington Main Street Market | Change Station
CLOSE
Current Station
Personal Weather Station
Location: Torrington, WY
Elevation: 4094 ft
Nearby Weather Stations
Active Advisory: Special Statement Active Notice: Record Report

Elev 4094 ft 42.06 °N, 104.18 °W | Updated 8 minutes ago

Partly Cloudy
Partly Cloudy
27.6 °F
Feels Like 28 °F
N
0.0
Wind Variable Wind from WNW
Gusts 0.0 mph

Today
High -- | Low -- °F
--% Chance of Precip.
Yesterday
High -- | Low -- °F
Precip. -- in
7:25 AM 4:32 PM
First Quarter, 52% visible
Pressure 30.04 in
Visibility 10.0 miles
Clouds Clear
Windchill 28 °F
Dew Point 18 °F
Humidity 67%
Rainfall 0.02 in
Snow Depth Not available.
UV 0 out of 12
Pollen .10 out of 12
Air Quality Not available.
Flu Activity Not available.
METAR KTOR 282253Z AUTO 29006KT 10SM CLR M02/M08 A2987 RMK AO2 SLP171 T10171083 $

More Conditions Fewer Conditions

Pressure 30.04 in
Visibility 10.0 miles
Clouds Clear
Windchill 28 °F
Dew Point 18 °F
Humidity 67%
Rainfall 0.02 in
Snow Depth Not available.
UV 0 out of 12
Pollen .10 out of 12
Air Quality Not available.
Flu Activity Not available.
METAR KTOR 282253Z AUTO 29006KT 10SM CLR M02/M08 A2987 RMK AO2 SLP171 T10171083 $

More Conditions Fewer Conditions

10-Day Weather Forecast

Almanac

Astronomy

Dec. 28, 2014 Rise Set
Actual Time
Civil Twilight
Nautical Twilight
Astronomical Twilight
Moon
Length of Visible Light
Length of Day
Tomorrow will be .
, % of the Moon is Illuminated

Today's Extremes

State Highs State Lows

Community

WunderPhotos

Upload Photos

1,781,460 photos uploaded!

WunderBlogs® & News

Nearby

Air Quality

  Air Quality AQ Index Pollutant
Not available.

Snow Depth

Station Depth Elevation

Earthquake Activity

City Distance Mag. Time & Date
Minimum magnitude displayed is 2.5.

Coastal Water Temperatures

Place Temperature

Nearby Weather Stations